Time;durP1;ratioP1;P1;durP2;ratioP2;P2;SDS_P1;SDS_P2;PMS_P1;PMS_P2;Temp;Humidity;BMP_temperature;BMP_pressure;BME280_temperature;BME280_humidity;BME280_pressure;Samples;Min_cycle;Max_cycle;Signal;HPM_P1;HPM_P2
2022/11/16 00:02:12;;;;;;;0.10;0.10;;;11.00;99.90;;;;;;5107213;28;20420;-76
2022/11/16 00:04:38;;;;;;;0.10;0.10;;;11.00;99.90;;;;;;5089021;28;20268;-76
2022/11/16 00:07:04;;;;;;;0.20;0.20;;;11.00;99.90;;;;;;5078337;28;20510;-76
2022/11/16 00:09:30;;;;;;;0.10;0.10;;;11.00;99.90;;;;;;5088985;28;20103;-75
2022/11/16 00:12:02;;;;;;;0.10;0.10;;;11.10;99.90;;;;;;5091640;28;20098;-76
2022/11/16 00:14:30;;;;;;;0.10;0.10;;;11.00;99.90;;;;;;5089595;28;20048;-76
2022/11/16 00:16:56;;;;;;;0.10;0.10;;;11.10;99.90;;;;;;5091380;28;20123;-76
2022/11/16 00:19:23;;;;;;;0.20;0.20;;;11.10;99.90;;;;;;5091908;28;20047;-76
2022/11/16 00:21:49;;;;;;;0.10;0.10;;;11.10;99.90;;;;;;5090259;28;20040;-76
2022/11/16 00:24:16;;;;;;;0.20;0.20;;;11.10;99.90;;;;;;5084646;28;20042;-77
2022/11/16 00:26:42;;;;;;;0.13;0.13;;;11.10;99.90;;;;;;5086402;28;20055;-76
2022/11/16 00:29:17;;;;;;;0.10;0.10;;;11.10;99.90;;;;;;5080073;28;20028;-77
2022/11/16 00:31:44;;;;;;;0.20;0.20;;;11.10;99.90;;;;;;5079751;28;20143;-76
2022/11/16 00:34:09;;;;;;;0.20;0.20;;;11.10;99.90;;;;;;5088706;28;20051;-76
2022/11/16 00:36:35;;;;;;;0.10;0.10;;;11.30;99.90;;;;;;5090002;28;20048;-77
2022/11/16 00:39:01;;;;;;;0.10;0.10;;;11.10;99.90;;;;;;5082863;28;20115;-77
2022/11/16 00:41:26;;;;;;;0.10;0.10;;;11.10;99.90;;;;;;5074119;28;20127;-76
2022/11/16 00:43:52;;;;;;;0.20;0.20;;;11.10;99.90;;;;;;5081897;28;20044;-77
2022/11/16 00:46:18;;;;;;;0.10;0.10;;;11.10;99.90;;;;;;5086949;28;20047;-76
2022/11/16 00:48:43;;;;;;;0.10;0.10;;;11.10;99.90;;;;;;5080533;28;20047;-76
2022/11/16 00:51:09;;;;;;;0.20;0.20;;;11.10;99.90;;;;;;5089654;28;20048;-76
2022/11/16 00:53:35;;;;;;;0.10;0.10;;;11.10;99.90;;;;;;5083738;28;20048;-76
2022/11/16 00:56:00;;;;;;;0.10;0.10;;;11.10;99.90;;;;;;5089909;28;20085;-76
2022/11/16 00:58:26;;;;;;;0.10;0.10;;;11.30;99.90;;;;;;5083352;28;20466;-75
2022/11/16 01:00:51;;;;;;;0.10;0.10;;;11.10;99.90;;;;;;5093049;28;20111;-75
2022/11/16 01:03:17;;;;;;;0.10;0.10;;;11.10;99.90;;;;;;5088888;28;20079;-75
2022/11/16 01:05:43;;;;;;;0.10;0.10;;;11.10;99.90;;;;;;5088012;28;20058;-75
2022/11/16 01:08:12;;;;;;;0.10;0.10;;;11.20;99.90;;;;;;5084628;28;20140;-75
2022/11/16 01:10:39;;;;;;;0.20;0.20;;;11.30;99.90;;;;;;5088645;28;20051;-76
2022/11/16 01:13:05;;;;;;;0.20;0.20;;;11.10;99.90;;;;;;5087307;28;20531;-75
2022/11/16 01:15:31;;;;;;;0.20;0.20;;;11.10;99.90;;;;;;5084774;28;20047;-75
2022/11/16 01:17:56;;;;;;;0.10;0.10;;;11.10;99.90;;;;;;5087438;28;20574;-75
2022/11/16 01:20:25;;;;;;;0.20;0.20;;;11.20;99.90;;;;;;5091862;28;20093;-75
2022/11/16 01:22:51;;;;;;;0.20;0.20;;;11.10;99.90;;;;;;5090615;28;20079;-75
2022/11/16 01:25:17;;;;;;;0.10;0.10;;;11.10;99.90;;;;;;5093832;28;20051;-75
2022/11/16 01:27:45;;;;;;;0.10;0.10;;;11.10;99.90;;;;;;5086456;28;20048;-75
2022/11/16 01:30:13;;;;;;;0.20;0.20;;;11.10;99.90;;;;;;5084079;28;20051;-75
2022/11/16 01:32:38;;;;;;;0.13;0.13;;;11.10;99.90;;;;;;5079296;28;20045;-74
2022/11/16 01:35:05;;;;;;;0.20;0.20;;;11.10;99.90;;;;;;5077341;28;20040;-76
2022/11/16 01:37:33;;;;;;;0.10;0.10;;;11.10;99.90;;;;;;5092975;28;20104;-75
2022/11/16 01:39:59;;;;;;;0.10;0.10;;;11.10;99.90;;;;;;5087553;28;20529;-76
2022/11/16 01:42:29;;;;;;;0.10;0.10;;;11.20;99.90;;;;;;5081354;28;20063;-75
2022/11/16 01:45:02;;;;;;;0.10;0.10;;;11.10;99.90;;;;;;5082093;28;20510;-75
2022/11/16 01:47:28;;;;;;;0.10;0.10;;;11.10;99.90;;;;;;5072991;28;20079;-75
2022/11/16 01:50:00;;;;;;;0.10;0.10;;;11.10;99.90;;;;;;5088381;28;20048;-75
2022/11/16 01:52:31;;;;;;;0.10;0.10;;;11.10;99.90;;;;;;5089903;28;20040;-75
2022/11/16 01:54:57;;;;;;;0.20;0.20;;;11.10;99.90;;;;;;5120211;27;20056;-75
2022/11/16 01:57:30;;;;;;;0.20;0.20;;;11.10;99.90;;;;;;5087596;28;20423;-75
2022/11/16 01:59:58;;;;;;;0.20;0.20;;;11.20;99.90;;;;;;5082465;28;20044;-76
2022/11/16 02:02:24;;;;;;;0.20;0.20;;;11.50;99.90;;;;;;5084060;28;20036;-75
2022/11/16 02:04:51;;;;;;;0.20;0.20;;;11.10;99.90;;;;;;5087298;28;20036;-75
2022/11/16 02:09:52;;;;;;;0.10;0.10;;;11.20;99.90;;;;;;5087885;28;20043;-76
2022/11/16 02:10:52;;;;;;;0.10;0.10;;;11.20;99.90;;;;;;5069788;28;20106;-75
2022/11/16 02:13:41;;;;;;;0.10;0.10;;;11.20;99.90;;;;;;5076111;28;20086;-75
2022/11/16 02:16:13;;;;;;;0.15;0.15;;;11.20;99.90;;;;;;5077046;28;20093;-75
2022/11/16 02:19:00;;;;;;;0.10;0.10;;;11.30;99.90;;;;;;5086224;28;20055;-76
2022/11/16 02:22:11;;;;;;;0.10;0.10;;;11.20;99.90;;;;;;5078352;28;20044;-76
2022/11/16 02:24:46;;;;;;;0.10;0.10;;;11.10;99.90;;;;;;5081009;28;20048;-76
2022/11/16 02:27:50;;;;;;;0.10;0.10;;;11.20;99.90;;;;;;5088298;28;20050;-75
2022/11/16 02:30:19;;;;;;;0.10;0.10;;;11.30;99.90;;;;;;5085031;28;20109;-76
2022/11/16 02:32:53;;;;;;;0.20;0.20;;;11.20;99.90;;;;;;5091731;28;20140;-75
2022/11/16 02:35:31;;;;;;;0.10;0.10;;;11.30;99.90;;;;;;5094103;28;20044;-75
2022/11/16 02:38:19;;;;;;;0.10;0.10;;;11.60;99.90;;;;;;5092920;28;20454;-75
2022/11/16 02:40:48;;;;;;;0.10;0.10;;;11.30;99.90;;;;;;5097500;28;20040;-75
2022/11/16 02:43:30;;;;;;;0.10;0.10;;;11.50;99.90;;;;;;5089621;28;20124;-74
2022/11/16 02:46:01;;;;;;;0.10;0.10;;;11.30;99.90;;;;;;5086245;28;20048;-75
2022/11/16 02:48:33;;;;;;;0.10;0.10;;;11.30;99.90;;;;;;5084902;28;20044;-75
2022/11/16 02:51:00;;;;;;;0.10;0.10;;;11.20;99.90;;;;;;5090284;28;20058;-75
2022/11/16 02:53:26;;;;;;;0.20;0.20;;;11.30;99.90;;;;;;5083322;28;20033;-75
2022/11/16 02:55:52;;;;;;;0.17;0.17;;;11.30;99.90;;;;;;5089930;28;20401;-74
2022/11/16 02:58:21;;;;;;;0.20;0.20;;;11.30;99.90;;;;;;5080334;28;20044;-75
2022/11/16 03:00:54;;;;;;;0.10;0.10;;;11.20;99.90;;;;;;5086817;28;20044;-75
2022/11/16 03:03:33;;;;;;;0.10;0.10;;;11.30;99.90;;;;;;5091642;28;20039;-75
2022/11/16 03:06:31;;;;;;;0.10;0.10;;;11.20;99.90;;;;;;5090654;28;20138;-75
2022/11/16 03:09:11;;;;;;;0.20;0.20;;;11.30;99.90;;;;;;5082886;28;20048;-75
2022/11/16 03:11:59;;;;;;;0.10;0.10;;;11.30;99.90;;;;;;5091141;28;20040;-75
2022/11/16 03:14:51;;;;;;;0.10;0.10;;;11.30;99.90;;;;;;5087694;28;20606;-75
2022/11/16 03:17:23;;;;;;;0.10;0.10;;;11.20;99.90;;;;;;5078087;28;20044;-75
2022/11/16 03:20:15;;;;;;;0.15;0.15;;;11.20;99.90;;;;;;5085651;28;20059;-74
2022/11/16 03:22:46;;;;;;;0.20;0.20;;;11.20;99.90;;;;;;5079808;28;20036;-75
2022/11/16 03:25:15;;;;;;;0.20;0.20;;;11.20;99.90;;;;;;5081695;28;20059;-75
2022/11/16 03:28:04;;;;;;;0.10;0.10;;;11.20;99.90;;;;;;5088644;28;20052;-75
2022/11/16 03:30:35;;;;;;;0.10;0.10;;;11.20;99.90;;;;;;5077491;28;20573;-75
2022/11/16 03:33:15;;;;;;;0.10;0.10;;;11.20;99.90;;;;;;5089722;28;20060;-75
2022/11/16 03:35:55;;;;;;;0.10;0.10;;;11.30;99.90;;;;;;5077406;28;20056;-75
2022/11/16 03:38:23;;;;;;;0.10;0.10;;;11.20;99.90;;;;;;5089837;28;20153;-74
2022/11/16 03:40:50;;;;;;;0.20;0.20;;;11.20;99.90;;;;;;5083274;28;20111;-74
2022/11/16 03:43:17;;;;;;;0.20;0.20;;;11.20;99.90;;;;;;5073451;28;20502;-75
2022/11/16 03:45:44;;;;;;;0.10;0.10;;;11.10;99.90;;;;;;5087456;28;20075;-75
2022/11/16 03:48:11;;;;;;;0.20;0.20;;;11.50;99.90;;;;;;5079941;28;20029;-75
2022/11/16 03:50:36;;;;;;;0.20;0.20;;;11.20;99.90;;;;;;5083903;28;20123;-75
2022/11/16 03:53:02;;;;;;;0.10;0.10;;;11.20;99.90;;;;;;5089293;28;20135;-75
2022/11/16 03:55:28;;;;;;;0.20;0.20;;;11.20;99.90;;;;;;5078693;28;20040;-75
2022/11/16 03:57:53;;;;;;;0.10;0.10;;;11.50;99.90;;;;;;5083645;28;20040;-75
2022/11/16 04:00:19;;;;;;;0.10;0.10;;;11.20;99.90;;;;;;5079576;28;20105;-75
2022/11/16 04:02:45;;;;;;;0.13;0.13;;;11.10;99.90;;;;;;5085307;28;20070;-75
2022/11/16 04:24:38;;;;;;;0.10;0.10;;;11.10;99.90;;;;;;5081323;28;20052;-75
2022/11/16 04:29:55;;;;;;;0.10;0.10;;;11.10;99.90;;;;;;5079799;28;20045;-76
2022/11/16 04:37:53;;;;;;;0.10;0.10;;;11.00;99.90;;;;;;5071295;28;20041;-75
2022/11/16 04:40:25;;;;;;;0.10;0.10;;;11.10;99.90;;;;;;5090601;28;20499;-75
2022/11/16 04:42:55;;;;;;;0.17;0.17;;;11.00;99.90;;;;;;5090133;28;20076;-75
2022/11/16 04:48:06;;;;;;;0.20;0.20;;;11.00;99.90;;;;;;5080310;28;20056;-76
2022/11/16 04:50:32;;;;;;;0.20;0.20;;;11.00;99.90;;;;;;5084819;28;20051;-76
2022/11/16 04:52:58;;;;;;;0.10;0.10;;;10.90;99.90;;;;;;5071081;28;20037;-75
2022/11/16 04:55:24;;;;;;;0.10;0.10;;;11.00;99.90;;;;;;5088712;28;20441;-75
2022/11/16 04:57:50;;;;;;;0.10;0.10;;;11.00;99.90;;;;;;5088084;28;20044;-75
2022/11/16 05:00:16;;;;;;;0.10;0.10;;;11.00;99.90;;;;;;5089786;28;20066;-75
2022/11/16 05:02:42;;;;;;;0.10;0.10;;;10.90;99.90;;;;;;5091401;28;20078;-75
2022/11/16 05:05:08;;;;;;;0.10;0.10;;;10.90;99.90;;;;;;5086179;28;20161;-75
2022/11/16 05:07:33;;;;;;;0.17;0.17;;;10.90;99.90;;;;;;5093060;28;20032;-75
2022/11/16 05:09:59;;;;;;;0.10;0.10;;;10.90;99.90;;;;;;5078106;28;20105;-76
2022/11/16 05:12:26;;;;;;;0.15;0.15;;;10.90;99.90;;;;;;5087378;28;20074;-76
2022/11/16 05:14:54;;;;;;;0.20;0.20;;;10.90;99.90;;;;;;5089347;28;20048;-75
2022/11/16 05:17:20;;;;;;;0.20;0.20;;;10.90;99.90;;;;;;5091722;28;20114;-75
2022/11/16 05:22:31;;;;;;;0.20;0.20;;;11.10;99.90;;;;;;5092167;28;20048;-75
2022/11/16 05:24:57;;;;;;;0.10;0.10;;;10.90;99.90;;;;;;5085698;28;20044;-75
2022/11/16 05:27:24;;;;;;;0.10;0.10;;;11.00;99.90;;;;;;5089854;28;20100;-75
2022/11/16 05:29:50;;;;;;;0.10;0.10;;;10.90;99.90;;;;;;5083536;28;20040;-75
2022/11/16 05:32:17;;;;;;;0.20;0.20;;;10.90;99.90;;;;;;5071946;28;20056;-75
2022/11/16 05:34:43;;;;;;;0.20;0.20;;;10.90;99.90;;;;;;5089124;28;20495;-75
2022/11/16 05:37:09;;;;;;;0.10;0.10;;;11.00;99.90;;;;;;5086951;28;20056;-76
2022/11/16 05:39:35;;;;;;;0.20;0.20;;;11.00;99.90;;;;;;5072387;28;20090;-76
2022/11/16 05:42:01;;;;;;;0.10;0.10;;;11.00;99.90;;;;;;5089652;28;20043;-75
2022/11/16 05:44:26;;;;;;;0.10;0.10;;;11.00;99.90;;;;;;5087816;28;20044;-76
2022/11/16 05:46:54;;;;;;;0.10;0.10;;;10.90;99.90;;;;;;5079465;28;20037;-76
2022/11/16 05:49:19;;;;;;;0.10;0.10;;;10.90;99.90;;;;;;5069583;28;20166;-75
2022/11/16 05:51:46;;;;;;;0.20;0.20;;;10.90;99.90;;;;;;5079531;28;20120;-75
2022/11/16 05:54:14;;;;;;;0.20;0.20;;;10.90;99.90;;;;;;5097399;28;20040;-76
2022/11/16 05:56:40;;;;;;;0.17;0.17;;;10.90;99.90;;;;;;5087527;28;20078;-75
2022/11/16 05:59:05;;;;;;;0.10;0.10;;;10.90;99.90;;;;;;5081856;28;20040;-76
2022/11/16 06:01:31;;;;;;;0.20;0.20;;;10.90;99.90;;;;;;5076739;28;20033;-75
2022/11/16 06:04:01;;;;;;;0.20;0.20;;;10.90;99.90;;;;;;5071217;28;20084;-76
2022/11/16 06:06:27;;;;;;;0.20;0.20;;;11.10;99.90;;;;;;5087973;28;20120;-75
2022/11/16 06:08:53;;;;;;;0.20;0.20;;;10.90;99.90;;;;;;5086981;28;20040;-75
2022/11/16 06:11:19;;;;;;;0.10;0.10;;;11.00;99.90;;;;;;5078469;28;20056;-75
2022/11/16 06:13:45;;;;;;;0.10;0.10;;;10.90;99.90;;;;;;5084261;28;20048;-76
2022/11/16 06:16:11;;;;;;;0.10;0.10;;;10.90;99.90;;;;;;5087510;28;20036;-76
2022/11/16 06:18:38;;;;;;;0.10;0.10;;;10.90;99.90;;;;;;5075646;28;20037;-76
2022/11/16 06:21:05;;;;;;;0.20;0.20;;;11.10;99.90;;;;;;5120030;28;20395;-76
2022/11/16 06:23:30;;;;;;;0.10;0.10;;;10.90;99.90;;;;;;5088869;28;20040;-76
2022/11/16 06:25:56;;;;;;;0.17;0.17;;;11.00;99.90;;;;;;5087018;28;20558;-76
2022/11/16 06:28:22;;;;;;;0.13;0.13;;;10.90;99.90;;;;;;5086812;28;20076;-77
2022/11/16 06:30:48;;;;;;;0.17;0.17;;;10.90;99.90;;;;;;5088260;28;20058;-76
2022/11/16 06:33:15;;;;;;;0.10;0.10;;;10.90;99.90;;;;;;5089076;28;20052;-77
2022/11/16 06:35:41;;;;;;;0.20;0.20;;;10.90;99.90;;;;;;5088235;28;20076;-77
2022/11/16 06:38:07;;;;;;;0.10;0.10;;;10.90;99.90;;;;;;5084095;28;20041;-77
2022/11/16 06:40:33;;;;;;;0.10;0.10;;;10.90;99.90;;;;;;5090085;28;20488;-77
2022/11/16 06:42:58;;;;;;;0.10;0.10;;;11.00;99.90;;;;;;5088119;28;20419;-77
2022/11/16 06:45:25;;;;;;;0.10;0.10;;;10.90;99.90;;;;;;5087332;28;20438;-77
2022/11/16 06:47:50;;;;;;;0.20;0.20;;;10.90;99.90;;;;;;5084798;28;20040;-77
2022/11/16 06:50:20;;;;;;;0.10;0.10;;;10.90;99.90;;;;;;5078610;28;20498;-78
2022/11/16 06:52:47;;;;;;;0.13;0.13;;;10.90;99.90;;;;;;5088523;28;20052;-77
2022/11/16 06:55:13;;;;;;;0.10;0.10;;;10.90;99.90;;;;;;5089752;28;20040;-77
2022/11/16 06:57:39;;;;;;;0.20;0.20;;;10.80;99.90;;;;;;5081555;28;20055;-76
2022/11/16 07:00:06;;;;;;;0.20;0.20;;;10.80;99.90;;;;;;5073979;28;20043;-77
2022/11/16 07:02:32;;;;;;;0.10;0.10;;;10.80;99.90;;;;;;5085944;28;20043;-77
2022/11/16 07:05:05;;;;;;;0.10;0.10;;;10.80;99.90;;;;;;5085351;28;20692;-77
2022/11/16 07:07:33;;;;;;;0.20;0.20;;;10.80;99.90;;;;;;5091425;28;20132;-78
2022/11/16 07:09:59;;;;;;;0.10;0.10;;;10.70;99.90;;;;;;5070264;28;20032;-77
2022/11/16 07:12:25;;;;;;;0.10;0.10;;;10.80;99.90;;;;;;5082015;28;20408;-80
2022/11/16 07:14:51;;;;;;;0.20;0.20;;;10.80;99.90;;;;;;5089159;28;20123;-73
2022/11/16 07:17:16;;;;;;;0.10;0.10;;;11.00;99.90;;;;;;5080988;28;20257;-72
2022/11/16 07:19:42;;;;;;;0.20;0.20;;;10.80;99.90;;;;;;5090829;28;20044;-70
2022/11/16 07:22:07;;;;;;;0.13;0.13;;;11.00;99.90;;;;;;5099124;28;20032;-72
2022/11/16 07:24:33;;;;;;;0.10;0.10;;;10.80;99.90;;;;;;5086136;28;20083;-71
2022/11/16 07:26:59;;;;;;;0.10;0.10;;;10.80;99.90;;;;;;5092792;28;20048;-72
2022/11/16 07:29:24;;;;;;;0.10;0.10;;;10.80;99.90;;;;;;5091876;28;20059;-71
2022/11/16 07:31:53;;;;;;;0.10;0.10;;;10.80;99.90;;;;;;5091887;28;20051;-72
2022/11/16 07:34:18;;;;;;;0.20;0.20;;;10.90;99.90;;;;;;5091816;28;20466;-72
2022/11/16 07:36:44;;;;;;;0.13;0.13;;;10.80;99.90;;;;;;5091857;28;20032;-72
2022/11/16 07:39:09;;;;;;;0.10;0.10;;;10.80;99.90;;;;;;5092799;28;20093;-71
2022/11/16 07:41:37;;;;;;;0.10;0.10;;;10.90;99.90;;;;;;5080255;28;20115;-70
2022/11/16 07:44:03;;;;;;;0.20;0.20;;;10.90;99.90;;;;;;5087395;28;20498;-70
2022/11/16 07:46:29;;;;;;;0.10;0.10;;;11.00;99.90;;;;;;5085996;28;20052;-70
2022/11/16 07:48:56;;;;;;;0.10;0.10;;;11.00;99.90;;;;;;5086169;28;20044;-70
2022/11/16 07:51:21;;;;;;;0.20;0.20;;;11.10;99.90;;;;;;5084851;28;20499;-70
2022/11/16 07:53:51;;;;;;;0.10;0.10;;;11.00;99.90;;;;;;5088029;28;20039;-70
2022/11/16 07:56:16;;;;;;;0.10;0.10;;;10.90;99.90;;;;;;5092068;28;20055;-70
2022/11/16 07:58:42;;;;;;;0.10;0.10;;;11.00;99.90;;;;;;5080432;28;20047;-70
2022/11/16 08:01:10;;;;;;;0.20;0.20;;;11.00;99.90;;;;;;5073548;28;20082;-70
2022/11/16 08:03:36;;;;;;;0.20;0.20;;;11.00;99.90;;;;;;5082420;28;20033;-70
2022/11/16 08:06:09;;;;;;;0.20;0.20;;;10.90;99.90;;;;;;5078033;28;20127;-71
2022/11/16 08:08:35;;;;;;;0.10;0.10;;;10.90;99.90;;;;;;5083379;28;20425;-70
2022/11/16 08:11:02;;;;;;;0.10;0.10;;;10.90;99.90;;;;;;5073860;28;20044;-70
2022/11/16 08:13:30;;;;;;;0.10;0.10;;;11.00;99.90;;;;;;5082788;28;20396;-70
2022/11/16 08:16:08;;;;;;;0.25;0.25;;;10.90;99.90;;;;;;5081761;28;20066;-70
2022/11/16 08:18:35;;;;;;;0.20;0.20;;;11.00;99.90;;;;;;5083168;28;20087;-70
2022/11/16 08:21:02;;;;;;;0.10;0.10;;;10.90;99.90;;;;;;5069398;28;20046;-70
2022/11/16 08:23:28;;;;;;;0.13;0.13;;;11.00;99.90;;;;;;5079555;28;20087;-71
2022/11/16 08:26:03;;;;;;;0.10;0.10;;;11.00;99.90;;;;;;5085048;28;20078;-71
2022/11/16 08:28:29;;;;;;;0.20;0.20;;;11.00;99.90;;;;;;5083322;28;20459;-71
2022/11/16 08:30:55;;;;;;;0.20;0.20;;;11.00;99.90;;;;;;5082491;28;20078;-72
2022/11/16 08:33:23;;;;;;;0.20;0.20;;;11.10;99.90;;;;;;5077517;28;20041;-71
2022/11/16 08:35:49;;;;;;;0.10;0.10;;;11.00;99.90;;;;;;5070963;28;20407;-71
2022/11/16 08:38:17;;;;;;;0.20;0.20;;;11.10;99.90;;;;;;5078807;28;20094;-71
2022/11/16 08:40:43;;;;;;;0.20;0.20;;;11.00;99.90;;;;;;5092815;28;20468;-72
2022/11/16 08:43:09;;;;;;;0.10;0.10;;;11.00;99.90;;;;;;5091297;28;20129;-71
2022/11/16 08:45:36;;;;;;;0.10;0.10;;;11.00;99.90;;;;;;5078858;28;20783;-72
2022/11/16 08:48:02;;;;;;;0.10;0.10;;;11.10;99.90;;;;;;5108261;27;20040;-72
2022/11/16 08:50:28;;;;;;;0.10;0.10;;;11.00;99.90;;;;;;5072839;28;20102;-71
2022/11/16 08:52:56;;;;;;;0.10;0.10;;;11.00;99.90;;;;;;5074149;28;20107;-71
2022/11/16 08:55:22;;;;;;;0.10;0.10;;;11.00;99.90;;;;;;5078133;28;20051;-71
2022/11/16 08:57:47;;;;;;;0.10;0.10;;;11.00;99.90;;;;;;5076517;28;20036;-71
2022/11/16 09:00:13;;;;;;;0.10;0.10;;;11.00;99.90;;;;;;5082781;28;20399;-71
2022/11/16 09:02:39;;;;;;;0.20;0.20;;;11.10;99.90;;;;;;5086322;28;20046;-73
2022/11/16 09:05:06;;;;;;;0.10;0.10;;;11.10;99.90;;;;;;5084431;28;20527;-70
2022/11/16 09:07:32;;;;;;;0.20;0.20;;;11.00;99.90;;;;;;5084174;28;20491;-71
2022/11/16 09:09:57;;;;;;;0.10;0.10;;;11.10;99.90;;;;;;5083047;28;20044;-70
2022/11/16 09:12:23;;;;;;;0.10;0.10;;;11.00;99.90;;;;;;5083923;28;20082;-71
2022/11/16 09:14:49;;;;;;;0.13;0.13;;;11.00;99.90;;;;;;5082658;28;20575;-70
2022/11/16 09:17:14;;;;;;;0.20;0.20;;;11.10;99.90;;;;;;5088025;28;20051;-72
2022/11/16 09:19:43;;;;;;;0.10;0.10;;;11.00;99.90;;;;;;5088807;28;20056;-71
2022/11/16 09:22:08;;;;;;;0.10;0.10;;;11.10;99.90;;;;;;5083821;28;20105;-70
2022/11/16 09:24:34;;;;;;;0.10;0.10;;;11.10;99.90;;;;;;5084309;28;20491;-70
2022/11/16 09:27:00;;;;;;;0.17;0.17;;;11.00;99.90;;;;;;5082129;28;20099;-73
2022/11/16 09:29:29;;;;;;;0.10;0.10;;;11.00;99.90;;;;;;5068420;28;20102;-72
2022/11/16 09:31:55;;;;;;;0.10;0.10;;;11.10;99.90;;;;;;5108961;27;20144;-73
2022/11/16 09:34:21;;;;;;;0.10;0.10;;;11.10;99.90;;;;;;5083330;28;20036;-71
2022/11/16 09:36:46;;;;;;;0.13;0.13;;;11.10;99.90;;;;;;5076059;28;20067;-71
2022/11/16 09:39:12;;;;;;;0.20;0.20;;;11.10;99.90;;;;;;5085841;28;20430;-71
2022/11/16 09:41:52;;;;;;;0.20;0.20;;;11.10;99.90;;;;;;5087109;28;20067;-72
2022/11/16 09:44:44;;;;;;;0.10;0.10;;;11.20;99.90;;;;;;5082348;28;20047;-71
2022/11/16 09:47:44;;;;;;;0.10;0.10;;;11.10;99.90;;;;;;5088075;28;20121;-71
2022/11/16 09:50:43;;;;;;;0.10;0.10;;;11.20;99.90;;;;;;5078213;28;20051;-72
2022/11/16 09:53:20;;;;;;;0.10;0.10;;;11.20;99.90;;;;;;5075925;28;20047;-72
2022/11/16 09:55:57;;;;;;;0.10;0.10;;;11.30;99.90;;;;;;5072511;28;20048;-72
2022/11/16 09:58:38;;;;;;;0.10;0.10;;;11.30;99.90;;;;;;5090988;28;20039;-71
2022/11/16 10:01:21;;;;;;;0.20;0.20;;;11.30;99.90;;;;;;5084768;28;20430;-71
2022/11/16 10:03:52;;;;;;;0.10;0.10;;;11.30;99.90;;;;;;5073772;28;20135;-71
2022/11/16 10:06:26;;;;;;;;;;;11.30;99.90;;;;;;5072180;28;20438;-71
2022/11/16 10:08:55;;;;;;;0.10;0.10;;;11.30;99.90;;;;;;5080008;28;19920;-72
2022/11/16 10:11:32;;;;;;;0.10;0.10;;;11.40;99.90;;;;;;5086309;28;20048;-71
2022/11/16 10:14:11;;;;;;;0.10;0.10;;;11.40;99.90;;;;;;5082162;28;20620;-72
2022/11/16 10:16:49;;;;;;;0.15;0.15;;;11.50;99.90;;;;;;5083171;28;20547;-72
2022/11/16 10:19:31;;;;;;;0.10;0.10;;;11.40;99.90;;;;;;5086852;28;20483;-72
2022/11/16 10:22:20;;;;;;;0.10;0.10;;;11.50;99.90;;;;;;5088512;28;20047;-71
2022/11/16 10:24:52;;;;;;;0.10;0.10;;;11.50;99.90;;;;;;5074570;28;20364;-72
2022/11/16 10:27:59;;;;;;;0.20;0.20;;;11.50;99.90;;;;;;5086901;28;20383;-72
2022/11/16 10:30:25;;;;;;;0.20;0.20;;;11.60;99.90;;;;;;5063467;28;20080;-71
2022/11/16 10:33:12;;;;;;;0.10;0.10;;;11.60;99.90;;;;;;5086377;28;20708;-72
2022/11/16 10:35:50;;;;;;;0.10;0.10;;;11.60;99.90;;;;;;5087372;28;20523;-72
2022/11/16 10:38:21;;;;;;;0.10;0.10;;;11.80;99.90;;;;;;5087669;28;20052;-72
2022/11/16 10:40:55;;;;;;;0.10;0.10;;;11.80;99.90;;;;;;5088209;28;20043;-72
2022/11/16 10:43:30;;;;;;;0.13;0.13;;;11.80;99.90;;;;;;5074239;28;20427;-71
2022/11/16 10:46:12;;;;;;;0.10;0.10;;;11.90;99.90;;;;;;5086542;28;20570;-72
2022/11/16 10:49:01;;;;;;;0.10;0.10;;;11.90;99.90;;;;;;5083819;28;20246;-72
2022/11/16 10:51:27;;;;;;;0.10;0.10;;;12.00;99.90;;;;;;5086057;28;20044;-72
2022/11/16 10:53:54;;;;;;;0.10;0.10;;;11.90;99.90;;;;;;5080818;28;20033;-72
2022/11/16 10:56:38;;;;;;;0.10;0.10;;;12.00;99.90;;;;;;5076692;28;20484;-72
2022/11/16 10:59:09;;;;;;;0.13;0.13;;;11.90;99.90;;;;;;5087874;28;20044;-72
2022/11/16 11:01:48;;;;;;;0.10;0.10;;;11.90;99.90;;;;;;5093703;28;20056;-72
2022/11/16 11:04:17;;;;;;;0.10;0.10;;;11.80;99.90;;;;;;5081144;28;20128;-72
2022/11/16 11:06:43;;;;;;;0.10;0.10;;;11.90;99.90;;;;;;5086455;28;20097;-72
2022/11/16 11:09:29;;;;;;;0.10;0.10;;;12.00;99.90;;;;;;5091274;28;20119;-72
2022/11/16 11:15:11;;;;;;;0.10;0.10;;;12.00;99.90;;;;;;5077981;28;20044;-72
2022/11/16 11:17:48;;;;;;;0.10;0.10;;;12.00;99.90;;;;;;5088452;28;20048;-72
2022/11/16 11:20:13;;;;;;;0.10;0.10;;;12.10;99.90;;;;;;5078301;28;20048;-72
2022/11/16 11:22:51;;;;;;;0.10;0.10;;;12.20;99.90;;;;;;5091818;28;20044;-72
2022/11/16 11:25:33;;;;;;;0.17;0.17;;;12.20;99.90;;;;;;5090542;28;20105;-72
2022/11/16 11:28:16;;;;;;;0.10;0.10;;;12.30;99.90;;;;;;5091054;28;20505;-72
2022/11/16 11:30:54;;;;;;;0.10;0.10;;;12.30;99.90;;;;;;5089367;28;20081;-70
2022/11/16 11:33:22;;;;;;;0.10;0.10;;;;;;;;;;5076724;28;20044;-70
2022/11/16 11:35:59;;;;;;;0.10;0.10;;;12.40;99.90;;;;;;5074865;28;20056;-70
2022/11/16 11:38:25;;;;;;;0.10;0.10;;;12.40;99.90;;;;;;5090529;28;20039;-70
2022/11/16 11:41:17;;;;;;;0.10;0.10;;;12.40;99.90;;;;;;5088355;28;20058;-72
2022/11/16 11:43:58;;;;;;;0.20;0.20;;;12.50;99.90;;;;;;5090387;28;20119;-72
2022/11/16 11:46:29;;;;;;;0.20;0.20;;;12.40;99.90;;;;;;5079756;28;20091;-72
2022/11/16 11:49:14;;;;;;;0.10;0.10;;;12.40;99.90;;;;;;5085486;28;20387;-73
2022/11/16 11:51:45;;;;;;;0.10;0.10;;;12.50;99.90;;;;;;5087543;28;20399;-72
2022/11/16 11:54:37;;;;;;;0.10;0.10;;;12.40;99.90;;;;;;5081972;28;20072;-72
2022/11/16 11:57:04;;;;;;;0.20;0.20;;;12.50;99.90;;;;;;5079741;28;20472;-72
2022/11/16 11:59:29;;;;;;;0.20;0.20;;;12.40;99.90;;;;;;5081437;28;20117;-72
2022/11/16 12:02:07;;;;;;;0.13;0.13;;;12.40;99.90;;;;;;5079565;28;20047;-73
2022/11/16 12:04:54;;;;;;;0.10;0.10;;;12.40;99.90;;;;;;5082825;28;20076;-72
2022/11/16 12:07:27;;;;;;;0.13;0.13;;;12.50;99.90;;;;;;5077375;28;20036;-72
2022/11/16 12:10:05;;;;;;;0.20;0.20;;;12.60;99.90;;;;;;5090016;28;20553;-72
2022/11/16 12:12:37;;;;;;;0.10;0.10;;;12.70;99.90;;;;;;5088217;28;20051;-72
2022/11/16 12:15:25;;;;;;;0.10;0.10;;;12.80;99.90;;;;;;5089829;28;20087;-71
2022/11/16 12:18:15;;;;;;;0.10;0.10;;;12.90;99.90;;;;;;5078670;28;20047;-71
2022/11/16 12:21:12;;;;;;;0.10;0.10;;;13.10;99.90;;;;;;5089840;28;20125;-72
2022/11/16 12:24:04;;;;;;;0.10;0.10;;;13.20;99.90;;;;;;5090513;28;20243;-71
2022/11/16 12:26:52;;;;;;;0.10;0.10;;;13.30;99.90;;;;;;5088613;28;20052;-71
2022/11/16 12:29:42;;;;;;;0.10;0.10;;;13.40;99.90;;;;;;5089478;28;20426;-72
2022/11/16 12:32:29;;;;;;;0.10;0.10;;;13.50;99.90;;;;;;5090059;28;20552;-72
2022/11/16 12:35:46;;;;;;;0.20;0.20;;;13.60;99.90;;;;;;5087637;28;20094;-72
2022/11/16 12:38:47;;;;;;;0.20;0.20;;;13.70;99.90;;;;;;5061710;28;20052;-72
2022/11/16 12:41:30;;;;;;;0.20;0.20;;;13.70;99.90;;;;;;5073377;28;20048;-72
2022/11/16 12:44:01;;;;;;;0.10;0.10;;;13.70;99.90;;;;;;5087291;28;20083;-73
2022/11/16 12:46:46;;;;;;;0.20;0.20;;;13.70;99.90;;;;;;5090534;28;20044;-72
2022/11/16 12:49:45;;;;;;;0.10;0.10;;;13.70;99.90;;;;;;5089498;28;20052;-72
2022/11/16 12:52:28;;;;;;;0.20;0.20;;;13.60;99.90;;;;;;5090077;28;20098;-73
2022/11/16 12:55:24;;;;;;;0.10;0.10;;;13.60;99.90;;;;;;5082198;28;20125;-73
2022/11/16 12:58:06;;;;;;;0.10;0.10;;;13.70;99.90;;;;;;5081406;28;20442;-73
2022/11/16 13:01:15;;;;;;;0.17;0.17;;;13.60;99.90;;;;;;5068898;28;20427;-73
2022/11/16 13:03:56;;;;;;;0.10;0.10;;;13.70;99.90;;;;;;5050196;28;20095;-72
2022/11/16 13:06:33;;;;;;;0.20;0.20;;;13.70;99.90;;;;;;5065329;28;20492;-72
2022/11/16 13:09:17;;;;;;;0.13;0.13;;;13.60;99.90;;;;;;5077659;28;20110;-72
2022/11/16 13:11:49;;;;;;;0.10;0.10;;;13.60;99.90;;;;;;5081979;28;20401;-72
2022/11/16 13:14:19;;;;;;;0.10;0.10;;;13.60;99.90;;;;;;5089055;28;20032;-72
2022/11/16 13:16:46;;;;;;;0.10;0.10;;;13.50;99.90;;;;;;5074254;28;20045;-72
2022/11/16 13:19:14;;;;;;;0.20;0.20;;;13.40;99.90;;;;;;5070699;28;20056;-72
2022/11/16 13:22:05;;;;;;;0.20;0.20;;;13.40;99.90;;;;;;5069147;28;20408;-72
2022/11/16 13:24:40;;;;;;;0.20;0.20;;;13.30;99.90;;;;;;5068437;28;20048;-72
2022/11/16 13:27:40;;;;;;;0.15;0.15;;;13.30;99.90;;;;;;5082923;28;20055;-73
2022/11/16 13:30:20;;;;;;;0.15;0.15;;;13.20;99.90;;;;;;5072199;28;20575;-72
2022/11/16 13:32:45;;;;;;;0.10;0.10;;;13.20;99.90;;;;;;5088057;28;20055;-72
2022/11/16 13:35:15;;;;;;;0.20;0.20;;;13.10;99.90;;;;;;5090537;28;20372;-72
2022/11/16 13:37:46;;;;;;;0.20;0.20;;;13.00;99.90;;;;;;5089607;28;20051;-72
2022/11/16 13:40:24;;;;;;;0.20;0.20;;;13.00;99.90;;;;;;5089290;28;20556;-72
2022/11/16 13:43:15;;;;;;;0.10;0.10;;;12.90;99.90;;;;;;5090129;28;20097;-72
2022/11/16 13:45:55;;;;;;;0.20;0.20;;;12.90;99.90;;;;;;5075533;28;20052;-73
2022/11/16 13:48:36;;;;;;;0.10;0.10;;;12.90;99.90;;;;;;5082666;28;20078;-73
2022/11/16 13:51:05;;;;;;;0.17;0.17;;;12.90;99.90;;;;;;5087231;28;20484;-72